sensor_id;sensor_type;location;lat;lon;timestamp;temperature;humidity
5578;DHT22;2811;51.900;10.734;2024-01-30T00:00:49;3.50;99.90
5578;DHT22;2811;51.900;10.734;2024-01-30T00:03:15;3.40;99.90
5578;DHT22;2811;51.900;10.734;2024-01-30T00:05:42;3.30;99.90
5578;DHT22;2811;51.900;10.734;2024-01-30T00:08:10;3.40;99.90
5578;DHT22;2811;51.900;10.734;2024-01-30T00:10:37;3.40;99.90
5578;DHT22;2811;51.900;10.734;2024-01-30T00:13:03;3.50;99.90
5578;DHT22;2811;51.900;10.734;2024-01-30T00:15:30;3.60;99.90
5578;DHT22;2811;51.900;10.734;2024-01-30T00:17:57;3.60;99.90
5578;DHT22;2811;51.900;10.734;2024-01-30T00:20:23;3.60;99.90
5578;DHT22;2811;51.900;10.734;2024-01-30T00:22:50;3.60;99.90
5578;DHT22;2811;51.900;10.734;2024-01-30T00:25:18;3.40;99.90
5578;DHT22;2811;51.900;10.734;2024-01-30T00:27:44;3.50;99.90
5578;DHT22;2811;51.900;10.734;2024-01-30T00:30:12;3.50;99.90
5578;DHT22;2811;51.900;10.734;2024-01-30T00:32:39;3.50;99.90
5578;DHT22;2811;51.900;10.734;2024-01-30T00:35:06;3.40;99.90
5578;DHT22;2811;51.900;10.734;2024-01-30T00:37:32;3.40;99.90
5578;DHT22;2811;51.900;10.734;2024-01-30T00:39:59;3.40;99.90
5578;DHT22;2811;51.900;10.734;2024-01-30T00:42:27;3.50;99.90
5578;DHT22;2811;51.900;10.734;2024-01-30T00:44:54;3.70;99.90
5578;DHT22;2811;51.900;10.734;2024-01-30T00:47:20;3.70;99.90
5578;DHT22;2811;51.900;10.734;2024-01-30T00:49:47;3.60;99.90
5578;DHT22;2811;51.900;10.734;2024-01-30T00:52:13;3.50;99.90
5578;DHT22;2811;51.900;10.734;2024-01-30T00:54:41;3.50;99.90
5578;DHT22;2811;51.900;10.734;2024-01-30T00:57:08;3.50;99.90
5578;DHT22;2811;51.900;10.734;2024-01-30T00:59:36;3.50;99.90
5578;DHT22;2811;51.900;10.734;2024-01-30T01:02:03;3.50;99.90
5578;DHT22;2811;51.900;10.734;2024-01-30T01:04:30;3.50;99.90
5578;DHT22;2811;51.900;10.734;2024-01-30T01:06:57;3.70;99.90
5578;DHT22;2811;51.900;10.734;2024-01-30T01:09:24;3.60;99.90
5578;DHT22;2811;51.900;10.734;2024-01-30T01:11:51;3.50;99.90
5578;DHT22;2811;51.900;10.734;2024-01-30T01:14:17;3.50;99.90
5578;DHT22;2811;51.900;10.734;2024-01-30T01:16:45;3.40;99.90
5578;DHT22;2811;51.900;10.734;2024-01-30T01:19:12;3.40;99.90
5578;DHT22;2811;51.900;10.734;2024-01-30T01:21:38;3.40;99.90
5578;DHT22;2811;51.900;10.734;2024-01-30T01:24:05;3.40;99.90
5578;DHT22;2811;51.900;10.734;2024-01-30T01:26:32;3.30;99.90
5578;DHT22;2811;51.900;10.734;2024-01-30T01:28:59;3.40;99.90
5578;DHT22;2811;51.900;10.734;2024-01-30T01:31:25;3.30;99.90
5578;DHT22;2811;51.900;10.734;2024-01-30T01:33:56;3.30;99.90
5578;DHT22;2811;51.900;10.734;2024-01-30T01:36:23;3.30;99.90
5578;DHT22;2811;51.900;10.734;2024-01-30T01:38:49;3.30;99.90
5578;DHT22;2811;51.900;10.734;2024-01-30T01:41:16;3.30;99.90
5578;DHT22;2811;51.900;10.734;2024-01-30T01:43:42;3.30;99.90
5578;DHT22;2811;51.900;10.734;2024-01-30T01:46:09;3.20;99.90
5578;DHT22;2811;51.900;10.734;2024-01-30T01:48:36;3.20;99.90
5578;DHT22;2811;51.900;10.734;2024-01-30T01:51:06;3.20;99.90
5578;DHT22;2811;51.900;10.734;2024-01-30T01:53:34;3.20;99.90
5578;DHT22;2811;51.900;10.734;2024-01-30T01:56:00;3.20;99.90
5578;DHT22;2811;51.900;10.734;2024-01-30T01:58:27;3.30;99.90
5578;DHT22;2811;51.900;10.734;2024-01-30T02:00:56;3.30;99.90
5578;DHT22;2811;51.900;10.734;2024-01-30T02:03:23;3.30;99.90
5578;DHT22;2811;51.900;10.734;2024-01-30T02:05:50;3.30;99.90
5578;DHT22;2811;51.900;10.734;2024-01-30T02:08:19;3.40;99.90
5578;DHT22;2811;51.900;10.734;2024-01-30T02:10:45;3.30;99.90
5578;DHT22;2811;51.900;10.734;2024-01-30T02:13:12;3.50;99.90
5578;DHT22;2811;51.900;10.734;2024-01-30T02:15:39;3.40;99.90
5578;DHT22;2811;51.900;10.734;2024-01-30T02:18:06;3.30;99.90
5578;DHT22;2811;51.900;10.734;2024-01-30T02:20:35;3.30;99.90
5578;DHT22;2811;51.900;10.734;2024-01-30T02:23:04;3.30;99.90
5578;DHT22;2811;51.900;10.734;2024-01-30T02:25:32;3.40;99.90
5578;DHT22;2811;51.900;10.734;2024-01-30T02:27:59;3.40;99.90
5578;DHT22;2811;51.900;10.734;2024-01-30T02:30:26;3.40;99.90
5578;DHT22;2811;51.900;10.734;2024-01-30T02:32:52;3.40;99.90
5578;DHT22;2811;51.900;10.734;2024-01-30T02:35:19;3.40;99.90
5578;DHT22;2811;51.900;10.734;2024-01-30T02:37:45;3.50;99.90
5578;DHT22;2811;51.900;10.734;2024-01-30T02:40:13;3.40;99.90
5578;DHT22;2811;51.900;10.734;2024-01-30T02:42:40;3.60;99.90
5578;DHT22;2811;51.900;10.734;2024-01-30T02:45:09;3.50;99.90
5578;DHT22;2811;51.900;10.734;2024-01-30T02:47:35;3.40;99.90
5578;DHT22;2811;51.900;10.734;2024-01-30T02:50:02;3.20;99.90
5578;DHT22;2811;51.900;10.734;2024-01-30T02:52:29;3.20;99.90
5578;DHT22;2811;51.900;10.734;2024-01-30T02:54:56;3.30;99.90
5578;DHT22;2811;51.900;10.734;2024-01-30T02:57:24;3.30;99.90
5578;DHT22;2811;51.900;10.734;2024-01-30T02:59:51;3.30;99.90
5578;DHT22;2811;51.900;10.734;2024-01-30T03:02:17;3.50;99.90
5578;DHT22;2811;51.900;10.734;2024-01-30T03:04:45;3.50;99.90
5578;DHT22;2811;51.900;10.734;2024-01-30T03:07:12;3.50;99.90
5578;DHT22;2811;51.900;10.734;2024-01-30T03:09:39;3.30;99.90
5578;DHT22;2811;51.900;10.734;2024-01-30T03:12:07;3.30;99.90
5578;DHT22;2811;51.900;10.734;2024-01-30T03:14:35;3.40;99.90
5578;DHT22;2811;51.900;10.734;2024-01-30T03:17:02;3.50;99.90
5578;DHT22;2811;51.900;10.734;2024-01-30T03:19:29;3.60;99.90
5578;DHT22;2811;51.900;10.734;2024-01-30T03:21:55;3.60;99.90
5578;DHT22;2811;51.900;10.734;2024-01-30T03:24:22;3.60;99.90
5578;DHT22;2811;51.900;10.734;2024-01-30T03:26:48;3.80;99.90
5578;DHT22;2811;51.900;10.734;2024-01-30T03:29:15;3.80;99.90
5578;DHT22;2811;51.900;10.734;2024-01-30T03:31:43;3.80;99.90
5578;DHT22;2811;51.900;10.734;2024-01-30T03:34:10;3.70;99.90
5578;DHT22;2811;51.900;10.734;2024-01-30T03:36:36;3.70;99.90
5578;DHT22;2811;51.900;10.734;2024-01-30T03:39:03;3.60;99.90
5578;DHT22;2811;51.900;10.734;2024-01-30T03:41:30;3.40;99.90
5578;DHT22;2811;51.900;10.734;2024-01-30T03:43:56;3.30;99.90
5578;DHT22;2811;51.900;10.734;2024-01-30T03:46:23;3.20;99.90
5578;DHT22;2811;51.900;10.734;2024-01-30T03:48:51;3.20;99.90
5578;DHT22;2811;51.900;10.734;2024-01-30T03:51:17;3.40;99.90
5578;DHT22;2811;51.900;10.734;2024-01-30T03:53:44;3.30;99.90
5578;DHT22;2811;51.900;10.734;2024-01-30T03:56:12;3.40;99.90
5578;DHT22;2811;51.900;10.734;2024-01-30T03:58:39;3.30;99.90
5578;DHT22;2811;51.900;10.734;2024-01-30T04:01:05;3.30;99.90
5578;DHT22;2811;51.900;10.734;2024-01-30T04:03:32;3.30;99.90
5578;DHT22;2811;51.900;10.734;2024-01-30T04:06:00;3.30;99.90
5578;DHT22;2811;51.900;10.734;2024-01-30T04:08:27;3.40;99.90
5578;DHT22;2811;51.900;10.734;2024-01-30T04:10:53;3.40;99.90
5578;DHT22;2811;51.900;10.734;2024-01-30T04:13:20;3.40;99.90
5578;DHT22;2811;51.900;10.734;2024-01-30T04:15:47;3.40;99.90
5578;DHT22;2811;51.900;10.734;2024-01-30T04:18:14;3.50;99.90
5578;DHT22;2811;51.900;10.734;2024-01-30T04:20:40;3.50;99.90
5578;DHT22;2811;51.900;10.734;2024-01-30T04:23:08;3.60;99.90
5578;DHT22;2811;51.900;10.734;2024-01-30T04:25:35;3.50;99.90
5578;DHT22;2811;51.900;10.734;2024-01-30T04:28:01;3.70;99.90
5578;DHT22;2811;51.900;10.734;2024-01-30T04:30:28;3.80;99.90
5578;DHT22;2811;51.900;10.734;2024-01-30T04:32:55;3.70;99.90
5578;DHT22;2811;51.900;10.734;2024-01-30T04:35:21;3.80;99.90
5578;DHT22;2811;51.900;10.734;2024-01-30T04:37:51;3.90;99.90
5578;DHT22;2811;51.900;10.734;2024-01-30T04:40:19;3.90;99.90
5578;DHT22;2811;51.900;10.734;2024-01-30T04:42:46;3.80;99.90
5578;DHT22;2811;51.900;10.734;2024-01-30T04:45:13;4.00;99.90
5578;DHT22;2811;51.900;10.734;2024-01-30T04:47:40;3.80;99.90
5578;DHT22;2811;51.900;10.734;2024-01-30T04:50:07;3.70;99.90
5578;DHT22;2811;51.900;10.734;2024-01-30T04:52:34;3.50;99.90
5578;DHT22;2811;51.900;10.734;2024-01-30T04:55:01;3.50;99.90
5578;DHT22;2811;51.900;10.734;2024-01-30T04:57:29;3.50;99.90
5578;DHT22;2811;51.900;10.734;2024-01-30T04:59:57;3.50;99.90
5578;DHT22;2811;51.900;10.734;2024-01-30T05:02:23;3.40;99.90
5578;DHT22;2811;51.900;10.734;2024-01-30T05:04:50;3.50;99.90
5578;DHT22;2811;51.900;10.734;2024-01-30T05:07:17;3.60;99.90
5578;DHT22;2811;51.900;10.734;2024-01-30T05:09:43;3.60;99.90
5578;DHT22;2811;51.900;10.734;2024-01-30T05:12:10;3.60;99.90
5578;DHT22;2811;51.900;10.734;2024-01-30T05:14:38;3.50;99.90
5578;DHT22;2811;51.900;10.734;2024-01-30T05:17:05;3.60;99.90
5578;DHT22;2811;51.900;10.734;2024-01-30T05:19:32;3.70;99.90
5578;DHT22;2811;51.900;10.734;2024-01-30T05:21:58;3.70;99.90
5578;DHT22;2811;51.900;10.734;2024-01-30T05:24:25;3.60;99.90
5578;DHT22;2811;51.900;10.734;2024-01-30T05:26:51;3.60;99.90
5578;DHT22;2811;51.900;10.734;2024-01-30T05:29:18;3.60;99.90
5578;DHT22;2811;51.900;10.734;2024-01-30T05:31:46;3.40;99.90
5578;DHT22;2811;51.900;10.734;2024-01-30T05:34:13;3.50;99.90
5578;DHT22;2811;51.900;10.734;2024-01-30T05:36:39;3.30;99.90
5578;DHT22;2811;51.900;10.734;2024-01-30T05:39:06;3.10;99.90
5578;DHT22;2811;51.900;10.734;2024-01-30T05:41:33;3.50;99.90
5578;DHT22;2811;51.900;10.734;2024-01-30T05:44:00;3.40;99.90
5578;DHT22;2811;51.900;10.734;2024-01-30T05:46:26;3.60;99.90
5578;DHT22;2811;51.900;10.734;2024-01-30T05:48:54;3.70;99.90
5578;DHT22;2811;51.900;10.734;2024-01-30T05:51:21;3.60;99.90
5578;DHT22;2811;51.900;10.734;2024-01-30T05:53:48;3.70;99.90
5578;DHT22;2811;51.900;10.734;2024-01-30T05:56:14;3.90;99.90
5578;DHT22;2811;51.900;10.734;2024-01-30T05:58:41;3.70;99.90
5578;DHT22;2811;51.900;10.734;2024-01-30T06:01:08;3.70;99.90
5578;DHT22;2811;51.900;10.734;2024-01-30T06:03:35;3.80;99.90
5578;DHT22;2811;51.900;10.734;2024-01-30T06:06:04;3.70;99.90
5578;DHT22;2811;51.900;10.734;2024-01-30T06:08:30;3.70;99.90
5578;DHT22;2811;51.900;10.734;2024-01-30T06:10:57;3.70;99.90
5578;DHT22;2811;51.900;10.734;2024-01-30T06:13:24;3.70;99.90
5578;DHT22;2811;51.900;10.734;2024-01-30T06:15:50;3.70;99.90
5578;DHT22;2811;51.900;10.734;2024-01-30T06:18:17;3.60;99.90
5578;DHT22;2811;51.900;10.734;2024-01-30T06:20:44;3.70;99.90
5578;DHT22;2811;51.900;10.734;2024-01-30T06:23:12;3.80;99.90
5578;DHT22;2811;51.900;10.734;2024-01-30T06:25:40;3.80;99.90
5578;DHT22;2811;51.900;10.734;2024-01-30T06:28:06;3.90;99.90
5578;DHT22;2811;51.900;10.734;2024-01-30T06:30:33;3.60;99.90
5578;DHT22;2811;51.900;10.734;2024-01-30T06:33:00;3.60;99.90
5578;DHT22;2811;51.900;10.734;2024-01-30T06:35:26;3.70;99.90
5578;DHT22;2811;51.900;10.734;2024-01-30T06:37:54;3.60;99.90
5578;DHT22;2811;51.900;10.734;2024-01-30T06:40:22;3.60;99.90
5578;DHT22;2811;51.900;10.734;2024-01-30T06:42:48;3.60;99.90
5578;DHT22;2811;51.900;10.734;2024-01-30T06:45:15;3.70;99.90
5578;DHT22;2811;51.900;10.734;2024-01-30T06:47:42;3.60;99.90
5578;DHT22;2811;51.900;10.734;2024-01-30T06:50:09;3.60;99.90
5578;DHT22;2811;51.900;10.734;2024-01-30T06:52:35;3.60;99.90
5578;DHT22;2811;51.900;10.734;2024-01-30T06:55:02;3.40;99.90
5578;DHT22;2811;51.900;10.734;2024-01-30T06:57:30;3.50;99.90
5578;DHT22;2811;51.900;10.734;2024-01-30T06:59:57;3.40;99.90
5578;DHT22;2811;51.900;10.734;2024-01-30T07:02:24;3.50;99.90
5578;DHT22;2811;51.900;10.734;2024-01-30T07:04:50;3.40;99.90
5578;DHT22;2811;51.900;10.734;2024-01-30T07:07:17;3.40;99.90
5578;DHT22;2811;51.900;10.734;2024-01-30T07:09:44;3.30;99.90
5578;DHT22;2811;51.900;10.734;2024-01-30T07:12:10;3.30;99.90
5578;DHT22;2811;51.900;10.734;2024-01-30T07:14:38;3.40;99.90
5578;DHT22;2811;51.900;10.734;2024-01-30T07:17:05;3.30;99.90
5578;DHT22;2811;51.900;10.734;2024-01-30T07:19:32;3.40;99.90
5578;DHT22;2811;51.900;10.734;2024-01-30T07:22:00;3.40;99.90
5578;DHT22;2811;51.900;10.734;2024-01-30T07:24:26;3.50;99.90
5578;DHT22;2811;51.900;10.734;2024-01-30T07:26:53;3.50;99.90
5578;DHT22;2811;51.900;10.734;2024-01-30T07:29:20;3.50;99.90
5578;DHT22;2811;51.900;10.734;2024-01-30T07:31:49;3.50;99.90
5578;DHT22;2811;51.900;10.734;2024-01-30T07:34:15;3.50;99.90
5578;DHT22;2811;51.900;10.734;2024-01-30T07:36:42;3.50;99.90
5578;DHT22;2811;51.900;10.734;2024-01-30T07:39:09;3.60;99.90
5578;DHT22;2811;51.900;10.734;2024-01-30T07:41:36;3.50;99.90
5578;DHT22;2811;51.900;10.734;2024-01-30T07:44:03;3.60;99.90
5578;DHT22;2811;51.900;10.734;2024-01-30T07:46:29;3.70;99.90
5578;DHT22;2811;51.900;10.734;2024-01-30T07:48:57;3.80;99.90
5578;DHT22;2811;51.900;10.734;2024-01-30T07:51:24;3.80;99.90
5578;DHT22;2811;51.900;10.734;2024-01-30T07:53:50;3.90;99.90
5578;DHT22;2811;51.900;10.734;2024-01-30T07:56:17;3.90;99.90
5578;DHT22;2811;51.900;10.734;2024-01-30T07:58:44;4.00;99.90
5578;DHT22;2811;51.900;10.734;2024-01-30T08:01:10;4.20;99.90
5578;DHT22;2811;51.900;10.734;2024-01-30T08:03:37;4.40;99.90
5578;DHT22;2811;51.900;10.734;2024-01-30T08:06:07;4.40;99.90
5578;DHT22;2811;51.900;10.734;2024-01-30T08:08:34;4.50;99.90
5578;DHT22;2811;51.900;10.734;2024-01-30T08:11:01;4.80;99.90
5578;DHT22;2811;51.900;10.734;2024-01-30T08:13:27;4.90;99.90
5578;DHT22;2811;51.900;10.734;2024-01-30T08:15:54;5.00;99.90
5578;DHT22;2811;51.900;10.734;2024-01-30T08:18:21;5.10;99.90
5578;DHT22;2811;51.900;10.734;2024-01-30T08:20:47;5.10;99.90
5578;DHT22;2811;51.900;10.734;2024-01-30T08:23:15;5.30;99.90
5578;DHT22;2811;51.900;10.734;2024-01-30T08:25:42;5.60;99.90
5578;DHT22;2811;51.900;10.734;2024-01-30T08:28:09;5.60;99.90
5578;DHT22;2811;51.900;10.734;2024-01-30T08:30:35;5.70;99.90
5578;DHT22;2811;51.900;10.734;2024-01-30T08:33:04;5.70;99.90
5578;DHT22;2811;51.900;10.734;2024-01-30T08:35:31;5.70;99.90
5578;DHT22;2811;51.900;10.734;2024-01-30T08:37:58;5.70;99.90
5578;DHT22;2811;51.900;10.734;2024-01-30T08:40:26;5.90;99.90
5578;DHT22;2811;51.900;10.734;2024-01-30T08:42:54;6.10;99.90
5578;DHT22;2811;51.900;10.734;2024-01-30T08:45:20;6.10;99.90
5578;DHT22;2811;51.900;10.734;2024-01-30T08:47:47;6.20;99.90
5578;DHT22;2811;51.900;10.734;2024-01-30T08:50:14;6.40;99.90
5578;DHT22;2811;51.900;10.734;2024-01-30T08:52:41;6.50;99.90
5578;DHT22;2811;51.900;10.734;2024-01-30T08:55:08;6.50;99.90
5578;DHT22;2811;51.900;10.734;2024-01-30T08:57:36;6.60;99.90
5578;DHT22;2811;51.900;10.734;2024-01-30T09:00:03;6.70;99.90
5578;DHT22;2811;51.900;10.734;2024-01-30T09:02:32;6.70;99.90
5578;DHT22;2811;51.900;10.734;2024-01-30T09:04:58;6.80;99.90
5578;DHT22;2811;51.900;10.734;2024-01-30T09:07:25;7.00;99.90
5578;DHT22;2811;51.900;10.734;2024-01-30T09:09:52;7.10;99.90
5578;DHT22;2811;51.900;10.734;2024-01-30T09:12:18;7.40;99.90
5578;DHT22;2811;51.900;10.734;2024-01-30T09:14:47;7.30;99.90
5578;DHT22;2811;51.900;10.734;2024-01-30T09:17:13;7.40;99.90
5578;DHT22;2811;51.900;10.734;2024-01-30T09:19:40;7.20;99.90
5578;DHT22;2811;51.900;10.734;2024-01-30T09:22:07;7.30;99.90
5578;DHT22;2811;51.900;10.734;2024-01-30T09:24:33;7.30;99.90
5578;DHT22;2811;51.900;10.734;2024-01-30T09:27:00;7.50;99.90
5578;DHT22;2811;51.900;10.734;2024-01-30T09:29:27;7.70;99.90
5578;DHT22;2811;51.900;10.734;2024-01-30T09:31:55;7.90;99.90
5578;DHT22;2811;51.900;10.734;2024-01-30T09:34:21;8.00;99.90
5578;DHT22;2811;51.900;10.734;2024-01-30T09:36:48;8.00;99.90
5578;DHT22;2811;51.900;10.734;2024-01-30T09:39:15;8.20;99.90
5578;DHT22;2811;51.900;10.734;2024-01-30T09:41:48;8.30;99.90
5578;DHT22;2811;51.900;10.734;2024-01-30T09:44:16;8.30;99.90
5578;DHT22;2811;51.900;10.734;2024-01-30T09:46:43;8.40;99.90
5578;DHT22;2811;51.900;10.734;2024-01-30T09:49:14;8.40;99.90
5578;DHT22;2811;51.900;10.734;2024-01-30T09:51:41;8.60;99.90
5578;DHT22;2811;51.900;10.734;2024-01-30T09:54:08;8.60;99.90
5578;DHT22;2811;51.900;10.734;2024-01-30T09:56:36;8.70;99.90
5578;DHT22;2811;51.900;10.734;2024-01-30T09:59:02;8.90;99.90
5578;DHT22;2811;51.900;10.734;2024-01-30T10:01:29;8.90;99.90
5578;DHT22;2811;51.900;10.734;2024-01-30T10:03:57;8.90;99.90
5578;DHT22;2811;51.900;10.734;2024-01-30T10:06:26;8.90;99.90
5578;DHT22;2811;51.900;10.734;2024-01-30T10:08:54;8.90;99.90
5578;DHT22;2811;51.900;10.734;2024-01-30T10:11:20;8.80;99.90
5578;DHT22;2811;51.900;10.734;2024-01-30T10:13:47;8.80;99.90
5578;DHT22;2811;51.900;10.734;2024-01-30T10:16:14;8.80;99.90
5578;DHT22;2811;51.900;10.734;2024-01-30T10:18:42;8.90;99.90
5578;DHT22;2811;51.900;10.734;2024-01-30T10:21:09;8.90;99.90
5578;DHT22;2811;51.900;10.734;2024-01-30T10:23:38;8.90;99.90
5578;DHT22;2811;51.900;10.734;2024-01-30T10:26:04;9.10;99.90
5578;DHT22;2811;51.900;10.734;2024-01-30T10:28:31;9.40;99.90
5578;DHT22;2811;51.900;10.734;2024-01-30T10:30:58;9.60;99.90
5578;DHT22;2811;51.900;10.734;2024-01-30T10:33:25;9.60;99.90
5578;DHT22;2811;51.900;10.734;2024-01-30T10:35:54;9.80;99.90
5578;DHT22;2811;51.900;10.734;2024-01-30T10:38:22;9.90;99.90
5578;DHT22;2811;51.900;10.734;2024-01-30T10:40:53;9.70;99.90
5578;DHT22;2811;51.900;10.734;2024-01-30T10:43:23;9.80;99.90
5578;DHT22;2811;51.900;10.734;2024-01-30T10:45:53;10.00;99.90
5578;DHT22;2811;51.900;10.734;2024-01-30T10:48:27;10.20;99.90
5578;DHT22;2811;51.900;10.734;2024-01-30T10:50:55;10.30;99.90
5578;DHT22;2811;51.900;10.734;2024-01-30T10:53:24;10.30;99.90
5578;DHT22;2811;51.900;10.734;2024-01-30T10:55:54;10.30;99.90
5578;DHT22;2811;51.900;10.734;2024-01-30T10:58:21;10.40;99.90
5578;DHT22;2811;51.900;10.734;2024-01-30T11:00:50;10.60;99.90
5578;DHT22;2811;51.900;10.734;2024-01-30T11:03:17;10.60;99.90
5578;DHT22;2811;51.900;10.734;2024-01-30T11:05:49;10.70;99.90
5578;DHT22;2811;51.900;10.734;2024-01-30T11:08:22;10.80;99.90
5578;DHT22;2811;51.900;10.734;2024-01-30T11:10:54;10.70;99.90
5578;DHT22;2811;51.900;10.734;2024-01-30T11:13:22;10.80;99.90
5578;DHT22;2811;51.900;10.734;2024-01-30T11:15:48;10.80;99.90
5578;DHT22;2811;51.900;10.734;2024-01-30T11:18:23;10.90;99.90
5578;DHT22;2811;51.900;10.734;2024-01-30T11:20:50;11.00;99.90
5578;DHT22;2811;51.900;10.734;2024-01-30T11:23:16;11.00;99.90
5578;DHT22;2811;51.900;10.734;2024-01-30T11:25:44;11.00;99.90
5578;DHT22;2811;51.900;10.734;2024-01-30T11:28:13;11.10;99.90
5578;DHT22;2811;51.900;10.734;2024-01-30T11:30:43;11.10;99.90
5578;DHT22;2811;51.900;10.734;2024-01-30T11:33:11;11.30;99.90
5578;DHT22;2811;51.900;10.734;2024-01-30T11:35:40;11.20;99.90
5578;DHT22;2811;51.900;10.734;2024-01-30T11:38:07;11.40;99.90
5578;DHT22;2811;51.900;10.734;2024-01-30T11:40:37;11.40;99.90
5578;DHT22;2811;51.900;10.734;2024-01-30T11:43:05;11.40;99.90
5578;DHT22;2811;51.900;10.734;2024-01-30T11:45:33;11.30;99.90
5578;DHT22;2811;51.900;10.734;2024-01-30T11:48:01;11.30;99.90
5578;DHT22;2811;51.900;10.734;2024-01-30T11:50:29;11.30;99.90
5578;DHT22;2811;51.900;10.734;2024-01-30T11:52:56;11.40;99.90
5578;DHT22;2811;51.900;10.734;2024-01-30T11:55:23;11.60;99.90
5578;DHT22;2811;51.900;10.734;2024-01-30T11:57:50;11.60;99.90
5578;DHT22;2811;51.900;10.734;2024-01-30T12:00:18;11.70;99.90
5578;DHT22;2811;51.900;10.734;2024-01-30T12:02:49;11.60;99.90
5578;DHT22;2811;51.900;10.734;2024-01-30T12:05:19;11.50;99.90
5578;DHT22;2811;51.900;10.734;2024-01-30T12:07:45;11.60;99.90
5578;DHT22;2811;51.900;10.734;2024-01-30T12:10:12;11.50;99.90
5578;DHT22;2811;51.900;10.734;2024-01-30T12:12:42;11.60;99.90
5578;DHT22;2811;51.900;10.734;2024-01-30T12:15:10;11.50;99.90
5578;DHT22;2811;51.900;10.734;2024-01-30T12:17:37;11.40;99.90
5578;DHT22;2811;51.900;10.734;2024-01-30T12:20:04;11.30;99.90
5578;DHT22;2811;51.900;10.734;2024-01-30T12:22:38;11.20;99.90
5578;DHT22;2811;51.900;10.734;2024-01-30T12:25:07;11.20;99.90
5578;DHT22;2811;51.900;10.734;2024-01-30T12:27:33;11.40;99.90
5578;DHT22;2811;51.900;10.734;2024-01-30T12:30:00;11.50;99.90
5578;DHT22;2811;51.900;10.734;2024-01-30T12:32:28;11.50;99.90
5578;DHT22;2811;51.900;10.734;2024-01-30T12:34:55;11.50;99.90
5578;DHT22;2811;51.900;10.734;2024-01-30T12:37:22;11.60;99.90
5578;DHT22;2811;51.900;10.734;2024-01-30T12:39:51;11.50;99.90
5578;DHT22;2811;51.900;10.734;2024-01-30T12:42:19;11.50;99.90
5578;DHT22;2811;51.900;10.734;2024-01-30T12:44:47;11.40;99.90
5578;DHT22;2811;51.900;10.734;2024-01-30T12:47:14;11.30;99.90
5578;DHT22;2811;51.900;10.734;2024-01-30T12:49:42;11.30;99.90
5578;DHT22;2811;51.900;10.734;2024-01-30T12:52:09;11.50;99.90
5578;DHT22;2811;51.900;10.734;2024-01-30T12:54:36;11.50;99.90
5578;DHT22;2811;51.900;10.734;2024-01-30T12:57:04;11.50;99.90
5578;DHT22;2811;51.900;10.734;2024-01-30T12:59:31;11.50;99.90
5578;DHT22;2811;51.900;10.734;2024-01-30T13:01:59;11.50;99.90
5578;DHT22;2811;51.900;10.734;2024-01-30T13:04:27;11.60;99.90
5578;DHT22;2811;51.900;10.734;2024-01-30T13:06:53;11.60;99.90
5578;DHT22;2811;51.900;10.734;2024-01-30T13:09:20;11.50;99.90
5578;DHT22;2811;51.900;10.734;2024-01-30T13:11:47;11.40;99.90
5578;DHT22;2811;51.900;10.734;2024-01-30T13:14:15;11.60;99.90
5578;DHT22;2811;51.900;10.734;2024-01-30T13:16:42;11.70;99.90
5578;DHT22;2811;51.900;10.734;2024-01-30T13:19:08;11.70;99.90
5578;DHT22;2811;51.900;10.734;2024-01-30T13:21:35;11.60;99.90
5578;DHT22;2811;51.900;10.734;2024-01-30T13:24:02;11.70;99.90
5578;DHT22;2811;51.900;10.734;2024-01-30T13:26:28;11.80;99.90
5578;DHT22;2811;51.900;10.734;2024-01-30T13:28:56;11.70;99.90
5578;DHT22;2811;51.900;10.734;2024-01-30T13:31:24;11.80;99.90
5578;DHT22;2811;51.900;10.734;2024-01-30T13:33:52;11.80;99.90
5578;DHT22;2811;51.900;10.734;2024-01-30T13:36:19;11.80;99.90
5578;DHT22;2811;51.900;10.734;2024-01-30T13:38:46;11.90;99.90
5578;DHT22;2811;51.900;10.734;2024-01-30T13:41:13;11.80;99.90
5578;DHT22;2811;51.900;10.734;2024-01-30T13:43:39;11.70;99.90
5578;DHT22;2811;51.900;10.734;2024-01-30T13:46:06;11.50;99.90
5578;DHT22;2811;51.900;10.734;2024-01-30T13:48:34;11.40;99.90
5578;DHT22;2811;51.900;10.734;2024-01-30T13:51:00;11.50;99.90
5578;DHT22;2811;51.900;10.734;2024-01-30T13:53:27;11.40;99.90
5578;DHT22;2811;51.900;10.734;2024-01-30T13:55:54;11.40;99.90
5578;DHT22;2811;51.900;10.734;2024-01-30T13:58:20;11.40;99.90
5578;DHT22;2811;51.900;10.734;2024-01-30T14:00:47;11.50;99.90
5578;DHT22;2811;51.900;10.734;2024-01-30T14:03:14;11.70;99.90
5578;DHT22;2811;51.900;10.734;2024-01-30T14:05:42;11.70;99.90
5578;DHT22;2811;51.900;10.734;2024-01-30T14:08:09;11.50;99.90
5578;DHT22;2811;51.900;10.734;2024-01-30T14:10:36;11.40;99.90
5578;DHT22;2811;51.900;10.734;2024-01-30T14:13:03;11.60;99.90
5578;DHT22;2811;51.900;10.734;2024-01-30T14:15:29;11.30;99.90
5578;DHT22;2811;51.900;10.734;2024-01-30T14:17:56;11.20;99.90
5578;DHT22;2811;51.900;10.734;2024-01-30T14:20:22;11.20;99.90
5578;DHT22;2811;51.900;10.734;2024-01-30T14:22:50;11.20;99.90
5578;DHT22;2811;51.900;10.734;2024-01-30T14:25:18;11.20;99.90
5578;DHT22;2811;51.900;10.734;2024-01-30T14:27:45;11.20;99.90
5578;DHT22;2811;51.900;10.734;2024-01-30T14:30:12;11.10;99.90
5578;DHT22;2811;51.900;10.734;2024-01-30T14:32:39;11.00;99.90
5578;DHT22;2811;51.900;10.734;2024-01-30T14:35:08;11.00;99.90
5578;DHT22;2811;51.900;10.734;2024-01-30T14:37:35;11.00;99.90
5578;DHT22;2811;51.900;10.734;2024-01-30T14:40:05;11.10;99.90
5578;DHT22;2811;51.900;10.734;2024-01-30T14:42:32;11.00;99.90
5578;DHT22;2811;51.900;10.734;2024-01-30T14:44:59;11.00;99.90
5578;DHT22;2811;51.900;10.734;2024-01-30T14:47:26;11.00;99.90
5578;DHT22;2811;51.900;10.734;2024-01-30T14:49:52;10.90;99.90
5578;DHT22;2811;51.900;10.734;2024-01-30T14:52:19;10.80;99.90
5578;DHT22;2811;51.900;10.734;2024-01-30T14:54:46;10.70;99.90
5578;DHT22;2811;51.900;10.734;2024-01-30T14:57:14;10.60;99.90
5578;DHT22;2811;51.900;10.734;2024-01-30T14:59:40;10.60;99.90
5578;DHT22;2811;51.900;10.734;2024-01-30T15:02:07;10.60;99.90
5578;DHT22;2811;51.900;10.734;2024-01-30T15:04:34;10.40;99.90
5578;DHT22;2811;51.900;10.734;2024-01-30T15:07:01;10.40;99.90
5578;DHT22;2811;51.900;10.734;2024-01-30T15:09:28;10.40;99.90
5578;DHT22;2811;51.900;10.734;2024-01-30T15:11:54;10.40;99.90
5578;DHT22;2811;51.900;10.734;2024-01-30T15:14:23;10.50;99.90
5578;DHT22;2811;51.900;10.734;2024-01-30T15:16:49;10.30;99.90
5578;DHT22;2811;51.900;10.734;2024-01-30T15:19:16;10.20;99.90
5578;DHT22;2811;51.900;10.734;2024-01-30T15:21:43;10.20;99.90
5578;DHT22;2811;51.900;10.734;2024-01-30T15:24:09;10.10;99.90
5578;DHT22;2811;51.900;10.734;2024-01-30T15:26:40;10.10;99.90
5578;DHT22;2811;51.900;10.734;2024-01-30T15:29:06;10.10;99.90
5578;DHT22;2811;51.900;10.734;2024-01-30T15:31:35;10.10;99.90
5578;DHT22;2811;51.900;10.734;2024-01-30T15:34:01;10.00;99.90
5578;DHT22;2811;51.900;10.734;2024-01-30T15:36:29;10.10;99.90
5578;DHT22;2811;51.900;10.734;2024-01-30T15:38:55;10.20;99.90
5578;DHT22;2811;51.900;10.734;2024-01-30T15:41:22;10.20;99.90
5578;DHT22;2811;51.900;10.734;2024-01-30T15:43:49;10.20;99.90
5578;DHT22;2811;51.900;10.734;2024-01-30T15:46:16;10.10;99.90
5578;DHT22;2811;51.900;10.734;2024-01-30T15:48:45;10.00;99.90
5578;DHT22;2811;51.900;10.734;2024-01-30T15:51:12;10.00;99.90
5578;DHT22;2811;51.900;10.734;2024-01-30T15:53:39;10.00;99.90
5578;DHT22;2811;51.900;10.734;2024-01-30T15:56:06;9.90;99.90